Time;durP1;ratioP1;P1;durP2;ratioP2;P2;SDS_P1;SDS_P2;PMS_P1;PMS_P2;Temp;Humidity;BMP_temperature;BMP_pressure;BME280_temperature;BME280_humidity;BME280_pressure;Samples;Min_cycle;Max_cycle;Signal;HPM_P1;HPM_P2
2021/07/20 00:03:19;;;;;;;21.08;14.15;;;;;;;19.39;100.00;94270.94;10574998;28;20023;-78
2021/07/20 00:08:20;;;;;;;22.47;14.47;;;;;;;19.49;100.00;94277.88;10573466;28;20391;-78
2021/07/20 00:13:20;;;;;;;25.67;15.55;;;;;;;19.45;100.00;94275.03;10574536;28;20326;-78
2021/07/20 00:18:24;;;;;;;28.58;16.02;;;;;;;19.51;100.00;94281.06;10574138;28;20023;-78
2021/07/20 00:23:24;;;;;;;22.10;15.30;;;;;;;19.50;100.00;94268.56;10573978;28;20175;-78
2021/07/20 00:28:25;;;;;;;22.88;15.35;;;;;;;19.40;100.00;94267.09;10574353;28;20020;-77
2021/07/20 00:33:26;;;;;;;19.55;14.05;;;;;;;19.49;100.00;94269.69;10573570;28;20019;-77
2021/07/20 00:38:26;;;;;;;20.40;14.23;;;;;;;19.35;100.00;94261.06;10554377;28;20035;-78
2021/07/20 00:43:27;;;;;;;24.07;13.87;;;;;;;19.29;100.00;94266.72;10571634;28;20073;-78
2021/07/20 00:48:27;;;;;;;19.15;13.25;;;;;;;19.24;100.00;94253.34;10572203;28;20277;-78
2021/07/20 00:53:27;;;;;;;27.10;14.68;;;;;;;19.15;100.00;94254.59;10571977;28;20100;-78
2021/07/20 00:58:29;;;;;;;23.43;14.60;;;;;;;19.09;100.00;94245.84;10572571;28;20024;-78
2021/07/20 01:03:31;;;;;;;24.63;16.10;;;;;;;19.00;100.00;94250.59;10572674;28;20028;-77
2021/07/20 01:08:31;;;;;;;23.65;13.95;;;;;;;18.94;100.00;94247.31;10571489;28;20081;-78
2021/07/20 01:13:36;;;;;;;23.60;14.57;;;;;;;18.79;100.00;94246.00;10571435;28;20085;-78
2021/07/20 01:18:38;;;;;;;23.40;14.60;;;;;;;18.78;100.00;94241.69;10569636;28;20043;-78
2021/07/20 01:23:45;;;;;;;24.95;15.55;;;;;;;18.72;100.00;94243.03;10570410;28;20046;-78
2021/07/20 01:28:47;;;;;;;31.83;16.48;;;;;;;18.64;100.00;94250.16;10571121;28;20696;-78
2021/07/20 01:33:51;;;;;;;27.27;16.02;;;;;;;18.60;100.00;94252.75;10571111;28;20533;-77
2021/07/20 01:38:53;;;;;;;26.65;16.05;;;;;;;18.58;100.00;94255.00;10570858;28;20383;-77
2021/07/20 01:44:05;;;;;;;32.13;14.60;;;;;;;18.47;100.00;94270.16;10570271;28;20440;-78
2021/07/20 01:49:14;;;;;;;25.40;16.02;;;;;;;18.40;100.00;94265.25;10570107;28;20401;-78
2021/07/20 01:54:15;;;;;;;29.13;15.77;;;;;;;18.44;100.00;94265.41;10570619;28;20025;-77
2021/07/20 01:59:16;;;;;;;28.58;16.10;;;;;;;18.45;100.00;94265.06;10570303;28;20480;-78
2021/07/20 02:09:24;;;;;;;30.50;16.95;;;;;;;18.45;100.00;94256.91;10569966;28;20064;-78
2021/07/20 02:14:29;;;;;;;24.50;15.25;;;;;;;18.40;100.00;94259.03;10570113;28;20447;-77
2021/07/20 02:19:36;;;;;;;29.75;16.83;;;;;;;18.47;100.00;94267.44;10569274;28;20479;-77
2021/07/20 02:24:38;;;;;;;25.80;15.07;;;;;;;18.47;100.00;94270.16;10569646;28;20477;-78
2021/07/20 02:29:39;;;;;;;27.65;16.38;;;;;;;18.45;100.00;94267.00;10568773;28;20024;-77
2021/07/20 02:34:40;;;;;;;28.00;16.05;;;;;;;18.50;100.00;94263.28;10568994;28;20467;-77
2021/07/20 02:39:41;;;;;;;24.42;15.55;;;;;;;18.48;100.00;94269.06;10569416;28;20046;-77
2021/07/20 02:44:44;;;;;;;24.50;16.13;;;;;;;18.48;100.00;94263.59;10569074;28;20030;-77
2021/07/20 02:49:45;;;;;;;26.88;17.13;;;;;;;18.41;100.00;94255.97;10569349;28;20044;-77
2021/07/20 02:54:46;;;;;;;30.73;15.18;;;;;;;18.46;100.00;94263.16;10569050;28;20912;-77
2021/07/20 02:59:47;;;;;;;29.38;16.55;;;;;;;18.37;100.00;94270.59;10568174;28;20068;-77
2021/07/20 03:04:48;;;;;;;30.38;17.98;;;;;;;18.46;100.00;94265.88;10568761;28;20035;-77
2021/07/20 03:09:51;;;;;;;36.93;16.43;;;;;;;18.44;100.00;94271.63;10568776;28;20870;-77
2021/07/20 03:14:53;;;;;;;30.92;16.92;;;;;;;18.46;100.00;94265.88;10567885;28;20620;-77
2021/07/20 03:19:56;;;;;;;28.88;17.83;;;;;;;18.48;100.00;94269.06;10568300;28;20538;-77
2021/07/20 03:25:00;;;;;;;30.85;16.67;;;;;;;18.53;100.00;94270.75;10567725;28;20047;-77
2021/07/20 03:30:01;;;;;;;34.05;16.52;;;;;;;18.53;100.00;94278.91;10568179;28;20022;-77
2021/07/20 03:35:02;;;;;;;29.15;16.80;;;;;;;18.77;100.00;94278.22;10567824;28;20840;-77
2021/07/20 03:40:03;;;;;;;31.98;17.83;;;;;;;18.85;100.00;94280.06;10549412;28;20023;-77
2021/07/20 03:45:06;;;;;;;29.48;16.45;;;;;;;19.01;100.00;94284.88;10574363;28;20035;-78
2021/07/20 03:50:07;;;;;;;27.98;16.13;;;;;;;19.13;100.00;94290.31;10574644;28;20040;-77
2021/07/20 03:55:08;;;;;;;32.00;16.50;;;;;;;19.32;100.00;94287.06;10574595;28;20040;-77
2021/07/20 04:00:09;;;;;;;28.35;15.45;;;;;;;19.51;100.00;94286.50;10574787;28;20024;-77
2021/07/20 04:05:14;;;;;;;31.65;16.42;;;;;;;19.57;100.00;94297.97;10574150;28;20031;-77
2021/07/20 04:10:16;;;;;;;32.65;18.05;;;;;;;19.50;100.00;94286.84;10576187;28;20032;-82
2021/07/20 04:15:16;;;;;;;31.38;17.38;;;;;;;19.46;100.00;94294.91;10578698;28;20036;-82
2021/07/20 04:20:16;;;;;;;33.55;17.00;;;;;;;19.28;100.00;94300.59;10573706;28;20024;-77
2021/07/20 04:25:17;;;;;;;32.80;18.43;;;;;;;19.30;100.00;94303.75;10573354;28;20131;-78
2021/07/20 04:30:18;;;;;;;31.10;19.05;;;;;;;18.97;100.00;94297.59;10573379;28;20027;-78
2021/07/20 04:35:19;;;;;;;38.27;19.73;;;;;;;18.82;100.00;94305.22;10572807;28;20453;-78
2021/07/20 04:40:20;;;;;;;36.78;19.00;;;;;;;18.75;100.00;94307.69;10572633;28;20274;-78
2021/07/20 04:45:20;;;;;;;33.38;17.60;;;;;;;18.94;100.00;94309.94;10572805;28;20027;-78
2021/07/20 04:50:21;;;;;;;34.05;19.63;;;;;;;19.12;100.00;94307.81;10571966;28;20889;-78
2021/07/20 04:55:22;;;;;;;34.25;17.38;;;;;;;19.39;100.00;94297.41;10570696;28;20034;-78
2021/07/20 05:00:23;;;;;;;34.60;17.90;;;;;;;19.56;100.00;94297.16;10551851;28;20131;-77
2021/07/20 05:05:25;;;;;;;31.95;18.20;;;;;;;19.88;100.00;94293.88;10570115;28;20028;-77
2021/07/20 05:10:26;;;;;;;37.95;18.40;;;;;;;20.15;100.00;94298.59;10570500;28;20106;-77
2021/07/20 05:15:27;;;;;;;33.60;16.73;;;;;;;20.44;100.00;94298.63;10571311;28;20020;-77
2021/07/20 05:20:28;;;;;;;34.63;17.10;;;;;;;20.66;100.00;94289.88;10570770;28;20821;-78
2021/07/20 05:25:28;;;;;;;37.15;17.35;;;;;;;20.93;100.00;94303.91;10570644;28;20048;-78
2021/07/20 05:30:29;;;;;;;32.80;16.20;;;;;;;21.33;100.00;94302.97;10552483;28;20023;-78
2021/07/20 05:35:30;;;;;;;30.55;16.33;;;;;;;21.82;100.00;94307.31;10551769;28;20032;-78
2021/07/20 05:40:31;;;;;;;24.25;14.70;;;;;;;22.12;100.00;94308.75;10571529;28;20031;-78
2021/07/20 05:45:32;;;;;;;27.02;15.77;;;;;;;22.27;100.00;94307.09;10571393;28;20035;-78
2021/07/20 05:50:32;;;;;;;29.08;16.10;;;;;;;22.28;100.00;94314.94;10571302;28;20035;-78
2021/07/20 05:55:34;;;;;;;35.92;16.33;;;;;;;21.79;100.00;94321.69;10571025;28;20483;-78
2021/07/20 06:00:34;;;;;;;27.13;16.63;;;;;;;21.41;100.00;94317.63;10570915;28;20031;-78
2021/07/20 06:05:35;;;;;;;29.75;17.75;;;;;;;21.56;100.00;94329.75;10569098;28;20083;-78
2021/07/20 06:10:36;;;;;;;35.47;17.27;;;;;;;22.04;100.00;94326.16;10570716;28;20024;-78
2021/07/20 06:15:43;;;;;;;32.88;17.05;;;;;;;22.22;100.00;94321.09;10552366;28;20110;-78
2021/07/20 06:20:50;;;;;;;34.92;17.17;;;;;;;22.89;100.00;94329.13;10570241;28;20035;-78
2021/07/20 06:25:52;;;;;;;38.77;17.17;;;;;;;23.03;100.00;94320.38;10570127;28;20084;-78
2021/07/20 06:30:53;;;;;;;27.92;15.75;;;;;;;24.13;100.00;94332.84;10570297;28;20402;-78
2021/07/20 06:35:56;;;;;;;26.73;13.27;;;;;;;26.24;100.00;94327.25;10569912;28;20031;-78
2021/07/20 06:40:57;;;;;;;23.50;11.32;;;;;;;26.36;100.00;94329.69;10569633;28;20115;-78
2021/07/20 06:45:58;;;;;;;16.55;11.20;;;;;;;26.27;100.00;94326.47;10569970;28;20088;-78
2021/07/20 06:51:00;;;;;;;20.40;11.95;;;;;;;25.73;100.00;94331.56;10569694;28;20554;-78
2021/07/20 06:56:02;;;;;;;19.10;11.95;;;;;;;25.81;100.00;94330.47;10568962;28;20730;-78
2021/07/20 07:01:06;;;;;;;20.90;9.98;;;;;;;27.43;100.00;94341.56;10569715;28;20080;-78
2021/07/20 07:06:08;;;;;;;17.48;8.48;;;;;;;29.36;88.57;94319.56;10569286;28;20482;-79
2021/07/20 07:11:09;;;;;;;16.23;9.00;;;;;;;30.34;78.82;94325.13;10569009;28;20103;-79
2021/07/20 07:16:11;;;;;;;11.23;8.48;;;;;;;30.32;78.87;94327.50;10570380;28;20053;-76
2021/07/20 07:21:12;;;;;;;16.27;9.38;;;;;;;28.91;85.33;94322.88;10576817;28;20027;-77
2021/07/20 07:26:14;;;;;;;26.90;9.93;;;;;;;27.67;98.05;94333.72;10577026;28;20079;-76
2021/07/20 07:31:15;;;;;;;18.08;10.02;;;;;;;27.56;98.25;94348.31;10577381;28;20114;-77
2021/07/20 07:36:16;;;;;;;12.05;8.38;;;;;;;26.90;100.00;94342.97;10576380;28;20024;-76
2021/07/20 07:41:17;;;;;;;13.45;9.60;;;;;;;26.66;100.00;94345.19;10576380;28;20474;-76
2021/07/20 07:46:18;;;;;;;16.00;8.40;;;;;;;27.67;97.94;94342.81;10576631;28;20027;-77
2021/07/20 07:51:19;;;;;;;22.65;8.20;;;;;;;27.48;100.00;94346.72;10576094;28;20092;-78
2021/07/20 07:56:20;;;;;;;14.32;8.07;;;;;;;29.61;86.92;94338.78;10575814;28;20027;-77
2021/07/20 08:01:22;;;;;;;10.45;7.43;;;;;;;31.61;62.06;94333.56;10576072;28;20114;-77
2021/07/20 08:06:25;;;;;;;11.63;6.53;;;;;;;32.96;54.39;94327.31;10575108;28;20027;-77
2021/07/20 08:11:29;;;;;;;15.00;5.70;;;;;;;34.53;48.36;94321.38;10557762;28;20023;-77
2021/07/20 08:16:35;;;;;;;7.65;5.65;;;;;;;33.29;51.38;94325.44;10575080;28;20032;-77
2021/07/20 08:21:36;;;;;;;;;;;;;;;30.50;65.32;94317.06;10575846;28;20031;-77
2021/07/20 08:26:45;;;;;;;12.20;6.55;;;;;;;31.84;60.29;94321.72;10574141;28;19915;-76
2021/07/20 08:31:53;;;;;;;8.00;6.05;;;;;;;32.69;54.07;94317.09;10573900;28;20404;-77
2021/07/20 08:36:56;;;;;;;11.90;6.80;;;;;;;32.37;53.84;94318.47;10556546;28;20047;-77
2021/07/20 08:42:18;;;;;;;9.35;5.97;;;;;;;29.06;72.02;94317.31;10573678;28;20426;-77
2021/07/20 08:47:50;;;;;;;15.20;7.88;;;;;;;28.97;81.83;94326.84;10573166;28;20032;-77
2021/07/20 08:53:10;;;;;;;12.15;7.43;;;;;;;27.55;94.96;94323.84;10573637;28;20080;-77
2021/07/20 08:58:51;;;;;;;12.05;7.68;;;;;;;28.44;84.25;94327.78;10573139;28;20487;-77
2021/07/20 09:03:55;;;;;;;13.00;6.72;;;;;;;27.34;88.17;94325.38;10496751;28;20047;-77
2021/07/20 09:09:04;;;;;;;13.00;7.38;;;;;;;27.83;92.71;94325.06;10572976;28;20051;-76
2021/07/20 09:14:33;;;;;;;8.85;5.82;;;;;;;30.92;70.64;94321.75;10572952;28;20028;-76
2021/07/20 09:19:36;;;;;;;7.30;5.07;;;;;;;33.22;50.47;94317.22;10572559;28;20410;-77
2021/07/20 09:24:47;;;;;;;8.50;4.75;;;;;;;35.35;44.52;94315.50;10572229;28;20047;-77
2021/07/20 09:29:53;;;;;;;17.50;5.35;;;;;;;36.67;40.28;94308.88;10572322;28;20031;-77
2021/07/20 09:35:14;;;;;;;5.85;4.32;;;;;;;37.73;39.02;94295.38;10571687;28;20031;-77
2021/07/20 09:40:43;;;;;;;10.75;5.07;;;;;;;38.67;35.36;94295.16;10553460;28;20040;-77
2021/07/20 09:45:48;;;;;;;8.05;4.47;;;;;;;39.37;34.05;94288.84;10571220;28;20018;-77
2021/07/20 09:51:19;;;;;;;6.63;4.63;;;;;;;39.68;35.11;94284.25;10571068;28;20093;-77
2021/07/20 09:56:35;;;;;;;11.13;4.68;;;;;;;39.20;34.88;94291.25;10571031;28;20102;-77
2021/07/20 10:01:53;;;;;;;10.32;5.03;;;;;;;39.35;32.94;94284.94;10570608;28;20020;-76
2021/07/20 10:07:05;;;;;;;7.63;5.40;;;;;;;36.59;38.30;94288.78;10570797;28;20498;-77
2021/07/20 10:12:20;;;;;;;9.90;5.30;;;;;;;36.65;38.48;94277.00;10570146;28;20024;-76
2021/07/20 10:18:01;;;;;;;6.25;4.70;;;;;;;37.40;37.66;94267.84;10570133;28;20023;-76
2021/07/20 10:23:24;;;;;;;7.32;4.45;;;;;;;39.23;33.57;94283.91;10569333;28;20075;-77
2021/07/20 10:28:34;;;;;;;8.02;4.80;;;;;;;39.89;32.33;94276.81;10569716;28;20034;-77
2021/07/20 10:33:43;;;;;;;12.90;4.72;;;;;;;39.50;31.84;94283.03;10570111;28;20023;-77
2021/07/20 10:38:52;;;;;;;7.95;4.78;;;;;;;35.91;38.02;94272.25;10569271;28;20055;-77
2021/07/20 10:44:07;;;;;;;8.00;5.57;;;;;;;37.44;36.68;94262.88;10568840;28;20066;-76
2021/07/20 10:49:31;;;;;;;10.23;5.38;;;;;;;38.97;34.29;94259.72;10568942;28;20084;-77
2021/07/20 10:54:37;;;;;;;7.63;4.00;;;;;;;40.49;30.68;94252.53;10568956;28;20055;-77
2021/07/20 11:00:10;;;;;;;8.10;4.03;;;;;;;41.91;28.61;94252.94;10568828;28;20106;-77
2021/07/20 11:05:10;;;;;;;5.90;3.83;;;;;;;39.17;30.35;94255.63;10568967;28;20575;-77
2021/07/20 11:10:40;;;;;;;8.25;4.85;;;;;;;36.21;35.75;94249.69;10568870;28;20092;-77
2021/07/20 11:15:43;;;;;;;11.57;6.25;;;;;;;34.70;39.45;94239.13;10562683;28;20040;-77
2021/07/20 11:20:45;;;;;;;8.82;6.13;;;;;;;32.99;45.43;94240.16;10568725;28;20375;-76
2021/07/20 11:25:48;;;;;;;9.25;6.75;;;;;;;31.67;50.51;94242.19;10568552;28;20127;-77
2021/07/20 11:30:51;;;;;;;10.13;7.43;;;;;;;30.23;55.90;94246.84;10568582;28;20028;-77
2021/07/20 11:35:56;;;;;;;11.43;6.90;;;;;;;29.78;59.78;94251.19;10568342;28;20028;-77
2021/07/20 11:40:56;;;;;;;13.45;7.78;;;;;;;30.00;64.88;94246.28;10567860;28;20024;-77
2021/07/20 11:46:07;;;;;;;10.60;7.25;;;;;;;30.33;55.24;94249.47;10568119;28;20151;-77
2021/07/20 11:51:16;;;;;;;9.02;5.38;;;;;;;29.75;53.44;94240.13;10567826;28;20028;-77
2021/07/20 11:56:24;;;;;;;13.82;7.25;;;;;;;29.48;58.85;94238.75;10566993;28;20028;-77
2021/07/20 12:01:58;;;;;;;11.20;7.00;;;;;;;29.22;60.90;94231.03;10567323;28;20106;-77
2021/07/20 12:07:22;;;;;;;9.90;6.85;;;;;;;29.49;66.47;94239.56;10574505;28;20030;-77
2021/07/20 12:12:46;;;;;;;13.52;9.32;;;;;;;29.58;67.74;94231.56;10574152;28;20023;-77
2021/07/20 12:17:47;;;;;;;12.40;8.65;;;;;;;29.29;65.82;94225.47;10574683;28;20027;-77
2021/07/20 12:22:51;;;;;;;14.25;8.65;;;;;;;28.87;67.39;94228.09;10574501;28;20044;-77
2021/07/20 12:27:54;;;;;;;12.52;7.88;;;;;;;29.30;64.58;94216.78;10573675;28;20024;-77
2021/07/20 12:32:56;;;;;;;12.93;8.52;;;;;;;28.99;69.24;94221.31;10573908;28;20461;-77
2021/07/20 12:38:08;;;;;;;16.48;9.18;;;;;;;29.48;64.34;94222.16;10573235;28;20486;-77
2021/07/20 12:43:08;;;;;;;13.45;9.10;;;;;;;29.29;64.43;94222.69;10578305;28;20132;-77
2021/07/20 12:48:22;;;;;;;10.80;8.00;;;;;;;29.02;63.49;94216.94;10578216;28;20092;-77
2021/07/20 12:53:25;;;;;;;17.58;8.23;;;;;;;29.12;67.95;94214.09;10573460;28;20457;-77
2021/07/20 12:58:25;;;;;;;12.20;8.20;;;;;;;28.77;66.01;94218.66;10573053;28;20031;-77
2021/07/20 13:03:26;;;;;;;13.43;6.65;;;;;;;28.93;62.16;94215.41;10572900;28;20023;-77
2021/07/20 13:08:27;;;;;;;11.23;7.63;;;;;;;28.90;65.88;94226.47;10572245;28;20054;-77
2021/07/20 13:13:29;;;;;;;16.83;8.07;;;;;;;29.01;66.25;94216.16;10554191;28;20030;-77
2021/07/20 13:18:29;;;;;;;14.35;8.48;;;;;;;28.83;67.32;94221.00;10571863;28;20791;-77
2021/07/20 13:23:40;;;;;;;17.13;9.30;;;;;;;28.68;73.62;94231.38;10571214;28;20145;-77
2021/07/20 13:28:40;;;;;;;13.35;8.80;;;;;;;28.62;71.35;94230.94;10553275;28;20465;-77
2021/07/20 13:33:41;;;;;;;16.03;9.30;;;;;;;28.59;70.61;94232.56;10571549;28;20107;-77
2021/07/20 13:38:43;;;;;;;15.40;9.07;;;;;;;28.36;67.10;94240.53;10571441;28;20380;-78
2021/07/20 13:43:45;;;;;;;18.20;8.85;;;;;;;28.14;68.28;94238.59;10570399;28;20031;-78
2021/07/20 13:48:47;;;;;;;14.00;9.50;;;;;;;28.01;74.17;94240.22;10570909;28;20114;-77
2021/07/20 13:53:53;;;;;;;14.55;8.80;;;;;;;27.66;71.14;94241.03;10571279;28;20379;-77
2021/07/20 13:58:58;;;;;;;17.15;8.70;;;;;;;27.51;72.45;94235.53;10570647;28;20540;-77
2021/07/20 14:03:59;;;;;;;13.35;9.55;;;;;;;27.44;72.52;94244.59;10570583;28;20023;-77
2021/07/20 14:09:00;;;;;;;14.05;8.82;;;;;;;27.19;70.04;94244.53;10569650;28;20019;-78
2021/07/20 14:14:01;;;;;;;13.65;9.30;;;;;;;27.01;76.95;94252.78;10570470;28;20047;-77
2021/07/20 14:19:03;;;;;;;12.38;6.63;;;;;;;26.90;76.14;94265.75;10569859;28;20038;-77
2021/07/20 14:24:06;;;;;;;11.63;5.13;;;;;;;27.01;72.46;94257.53;10568408;28;20047;-78
2021/07/20 14:29:19;;;;;;;8.00;5.28;;;;;;;26.98;73.89;94270.13;10568590;28;20048;-77
2021/07/20 14:34:20;;;;;;;9.77;4.82;;;;;;;26.74;78.21;94272.41;10569446;28;20094;-78
2021/07/20 14:39:26;;;;;;;8.77;5.80;;;;;;;25.92;85.11;94267.22;10569022;28;20028;-78
2021/07/20 14:44:27;;;;;;;9.43;5.80;;;;;;;25.95;87.33;94274.72;10569153;28;20056;-77
2021/07/20 14:49:40;;;;;;;11.45;6.10;;;;;;;25.84;92.53;94282.09;10568796;28;20049;-78
2021/07/20 14:54:40;;;;;;;9.82;6.63;;;;;;;26.08;95.34;94281.53;10569064;28;20035;-77
2021/07/20 14:59:43;;;;;;;19.85;7.57;;;;;;;26.14;100.00;94272.91;10568487;28;20057;-77
2021/07/20 15:04:44;;;;;;;14.88;7.80;;;;;;;26.14;98.78;94289.44;10568286;28;20051;-77
2021/07/20 15:09:53;;;;;;;15.73;7.90;;;;;;;26.18;99.92;94288.28;10568554;28;20114;-77
2021/07/20 15:14:56;;;;;;;19.23;8.07;;;;;;;26.25;100.00;94298.53;10568217;28;20019;-77
2021/07/20 15:20:05;;;;;;;19.90;9.52;;;;;;;26.17;97.47;94299.69;10568289;28;20035;-77
2021/07/20 15:25:05;;;;;;;13.57;8.40;;;;;;;26.23;100.00;94301.69;10568528;28;20094;-77
2021/07/20 15:30:08;;;;;;;13.20;8.82;;;;;;;26.19;100.00;94305.56;10550076;28;20102;-77
2021/07/20 15:35:09;;;;;;;15.25;8.77;;;;;;;25.92;96.85;94308.53;10567610;28;20024;-77
2021/07/20 15:40:10;;;;;;;10.43;7.85;;;;;;;25.78;97.09;94319.44;10573061;28;20052;-77
2021/07/20 15:45:19;;;;;;;12.63;7.05;;;;;;;25.56;86.11;94317.28;10574192;28;20038;-77
2021/07/20 15:50:29;;;;;;;16.20;7.25;;;;;;;25.50;89.06;94318.03;10574460;28;20020;-77
2021/07/20 15:55:30;;;;;;;13.18;6.32;;;;;;;25.20;90.79;94325.19;10573726;28;20181;-77
2021/07/20 16:00:33;;;;;;;13.13;6.53;;;;;;;25.16;92.12;94321.59;10573855;28;20051;-77
2021/07/20 16:05:34;;;;;;;11.57;7.13;;;;;;;25.14;97.62;94329.41;10552663;28;20058;-77
2021/07/20 16:10:36;;;;;;;14.82;8.23;;;;;;;24.91;100.00;94327.59;10572352;28;20020;-77
2021/07/20 16:15:38;;;;;;;15.45;9.07;;;;;;;24.88;100.00;94336.59;10572382;28;20030;-77
2021/07/20 16:20:44;;;;;;;16.08;8.40;;;;;;;24.71;100.00;94337.97;10572542;28;20023;-78
2021/07/20 16:25:45;;;;;;;18.88;9.10;;;;;;;24.68;100.00;94335.16;10572912;28;20342;-77
2021/07/20 16:30:48;;;;;;;14.40;7.68;;;;;;;24.06;100.00;94339.81;10572483;28;20028;-78
2021/07/20 16:35:48;;;;;;;14.07;8.65;;;;;;;23.89;100.00;94348.56;10572622;28;20661;-77
2021/07/20 16:40:51;;;;;;;13.27;7.57;;;;;;;24.02;100.00;94351.91;10571953;28;20027;-77
2021/07/20 16:45:55;;;;;;;13.98;8.50;;;;;;;24.02;100.00;94355.44;10574613;28;20102;-78
2021/07/20 16:51:01;;;;;;;13.38;8.20;;;;;;;23.95;100.00;94366.28;10572411;28;20175;-77
2021/07/20 16:56:09;;;;;;;13.70;8.60;;;;;;;23.90;100.00;94369.34;10577296;28;20023;-77
2021/07/20 17:01:23;;;;;;;12.88;8.60;;;;;;;24.06;100.00;94380.97;10553180;28;20024;-77
2021/07/20 17:06:31;;;;;;;13.57;7.65;;;;;;;24.00;100.00;94385.22;10571011;28;20022;-77
2021/07/20 17:11:32;;;;;;;13.38;8.35;;;;;;;24.05;100.00;94390.38;10571512;28;20110;-77
2021/07/20 17:16:40;;;;;;;12.18;7.93;;;;;;;23.71;100.00;94395.69;10570333;28;20036;-77
2021/07/20 17:21:41;;;;;;;13.32;7.55;;;;;;;23.43;100.00;94404.19;10577029;28;20031;-77
2021/07/20 17:26:50;;;;;;;15.10;7.75;;;;;;;23.15;100.00;94412.66;10570005;28;20725;-77
2021/07/20 17:31:51;;;;;;;19.55;8.10;;;;;;;22.98;100.00;94419.34;10569988;28;20028;-77
2021/07/20 17:36:55;;;;;;;11.55;7.85;;;;;;;22.90;100.00;94423.91;10569689;28;20814;-77
2021/07/20 17:46:57;;;;;;;16.70;8.45;;;;;;;22.69;100.00;94444.19;10569531;28;20058;-77
2021/07/20 17:51:57;;;;;;;11.55;7.70;;;;;;;;;;10569141;28;20114;-77
2021/07/20 17:56:57;;;;;;;14.48;7.63;;;;;;;22.52;100.00;94447.31;10569147;28;20092;-77
2021/07/20 18:01:58;;;;;;;10.45;6.53;;;;;;;22.38;100.00;94442.31;10569385;28;20028;-77
2021/07/20 18:06:59;;;;;;;10.75;7.75;;;;;;;22.34;100.00;94455.94;10568530;28;20100;-77
2021/07/20 18:12:00;;;;;;;15.13;8.77;;;;;;;22.33;100.00;94453.53;10568807;28;20164;-77
2021/07/20 18:17:00;;;;;;;16.98;7.10;;;;;;;22.27;100.00;94472.16;10568733;28;20441;-77
2021/07/20 18:22:01;;;;;;;14.80;7.83;;;;;;;22.14;100.00;94476.13;10568404;28;20047;-78
2021/07/20 18:27:02;;;;;;;15.90;8.43;;;;;;;22.02;100.00;94483.28;10550180;28;20395;-77
2021/07/20 18:32:04;;;;;;;13.00;7.78;;;;;;;21.90;100.00;94499.00;10567491;28;20110;-77
2021/07/20 18:37:04;;;;;;;9.93;7.40;;;;;;;21.76;100.00;94505.66;10566015;28;20028;-77
2021/07/20 18:42:05;;;;;;;11.95;7.75;;;;;;;21.66;100.00;94506.19;10567373;28;20039;-77
2021/07/20 18:47:06;;;;;;;14.13;7.85;;;;;;;21.65;100.00;94519.03;10567046;28;20031;-77
2021/07/20 18:52:08;;;;;;;12.63;7.73;;;;;;;21.57;100.00;94530.94;10567110;28;20040;-78
2021/07/20 18:57:08;;;;;;;9.93;7.47;;;;;;;21.45;100.00;94539.19;10566475;28;20289;-77
2021/07/20 19:02:10;;;;;;;11.40;8.10;;;;;;;21.51;100.00;94554.97;10567536;28;20036;-77
2021/07/20 19:07:10;;;;;;;12.40;8.25;;;;;;;21.33;100.00;94543.53;10566983;28;20026;-78
2021/07/20 19:12:10;;;;;;;12.37;8.07;;;;;;;21.21;100.00;94543.59;10567548;28;20039;-77
2021/07/20 19:17:11;;;;;;;13.98;9.88;;;;;;;21.14;100.00;94548.81;10575660;28;20028;-76
2021/07/20 19:22:11;;;;;;;17.33;9.40;;;;;;;21.13;100.00;94558.97;10574551;28;20152;-76
2021/07/20 19:27:14;;;;;;;15.93;9.00;;;;;;;21.23;100.00;94562.38;10574385;28;20131;-76
2021/07/20 19:32:14;;;;;;;14.68;9.20;;;;;;;21.17;100.00;94572.75;10575097;28;20032;-77
2021/07/20 19:37:15;;;;;;;12.75;8.52;;;;;;;21.04;100.00;94571.94;10546173;28;20028;-77
2021/07/20 19:42:16;;;;;;;12.70;8.87;;;;;;;21.04;100.00;94574.69;10577208;27;20030;-78
2021/07/20 19:47:16;;;;;;;13.02;8.63;;;;;;;21.11;100.00;94576.84;10574576;28;20284;-77
2021/07/20 19:52:16;;;;;;;13.90;9.47;;;;;;;21.22;100.00;94575.22;10572421;28;20023;-77
2021/07/20 19:57:17;;;;;;;13.80;8.73;;;;;;;21.21;100.00;94573.66;10573973;28;20039;-77
2021/07/20 20:02:18;;;;;;;14.13;9.60;;;;;;;21.33;100.00;94586.47;10573306;28;20037;-77
2021/07/20 20:07:18;;;;;;;13.33;9.00;;;;;;;21.29;100.00;94586.38;10575529;27;20129;-77
2021/07/20 20:12:19;;;;;;;16.63;10.27;;;;;;;21.32;100.00;94595.81;10582710;27;20269;-77
2021/07/20 20:17:21;;;;;;;12.57;8.73;;;;;;;21.18;100.00;94590.72;10573151;28;20028;-77
2021/07/20 20:22:22;;;;;;;18.98;10.65;;;;;;;21.20;100.00;94596.66;10573005;28;20028;-77
2021/07/20 20:27:22;;;;;;;15.60;9.70;;;;;;;21.14;100.00;94589.81;10553166;28;20051;-77
2021/07/20 20:32:23;;;;;;;13.82;9.00;;;;;;;21.04;100.00;94588.34;10572784;28;20276;-78
2021/07/20 20:37:23;;;;;;;13.73;9.43;;;;;;;21.10;100.00;94594.41;10553910;28;20806;-77
2021/07/20 20:42:23;;;;;;;9.75;8.13;;;;;;;21.09;100.00;94601.00;10572698;28;20277;-77
2021/07/20 20:47:24;;;;;;;11.67;8.33;;;;;;;21.07;100.00;94592.31;10572455;28;20028;-77
2021/07/20 20:52:24;;;;;;;13.45;8.35;;;;;;;20.98;100.00;94595.97;10572323;28;20277;-77
2021/07/20 20:57:24;;;;;;;10.50;7.60;;;;;;;20.86;100.00;94609.66;10572349;28;20512;-77
2021/07/20 21:02:25;;;;;;;12.40;8.27;;;;;;;20.72;100.00;94606.47;10568930;28;20046;-76
2021/07/20 21:07:25;;;;;;;15.57;9.23;;;;;;;20.78;100.00;94607.84;10545409;28;20028;-77
2021/07/20 21:12:26;;;;;;;10.83;8.13;;;;;;;20.64;100.00;94614.41;10532165;28;20492;-77
2021/07/20 21:17:26;;;;;;;12.23;8.30;;;;;;;20.58;100.00;94612.22;10571081;28;20058;-77
2021/07/20 21:22:27;;;;;;;19.23;8.45;;;;;;;20.64;100.00;94621.81;10570429;28;20493;-77
2021/07/20 21:27:27;;;;;;;13.35;8.50;;;;;;;20.52;100.00;94616.31;10608647;27;20039;-77
2021/07/20 21:32:28;;;;;;;9.90;8.18;;;;;;;20.51;100.00;94620.19;10551498;28;20023;-77
2021/07/20 21:37:28;;;;;;;11.03;8.13;;;;;;;20.44;100.00;94629.75;10563001;28;20096;-77
2021/07/20 21:42:28;;;;;;;15.63;8.90;;;;;;;20.47;100.00;94639.97;10563985;28;20369;-77
2021/07/20 21:47:29;;;;;;;12.57;7.53;;;;;;;20.34;100.00;94641.06;10545825;28;20027;-76
2021/07/20 21:52:30;;;;;;;13.48;7.63;;;;;;;20.30;100.00;94642.88;10565958;28;20036;-80
2021/07/20 21:57:30;;;;;;;9.40;7.22;;;;;;;20.09;100.00;94662.03;10566532;27;20027;-79
2021/07/20 22:02:30;;;;;;;18.23;9.57;;;;;;;20.12;100.00;94661.34;10594829;27;20031;-79
2021/07/20 22:07:31;;;;;;;12.00;7.63;;;;;;;20.22;100.00;94668.31;10612323;27;20023;-80
2021/07/20 22:12:31;;;;;;;13.77;7.80;;;;;;;19.97;100.00;94660.06;10611938;27;20075;-80
2021/07/20 22:17:31;;;;;;;9.47;7.13;;;;;;;19.93;100.00;94675.50;10612310;27;20034;-79
2021/07/20 22:22:34;;;;;;;12.60;8.00;;;;;;;20.03;100.00;94669.63;10593582;27;20088;-80
2021/07/20 22:27:35;;;;;;;12.85;8.13;;;;;;;19.68;100.00;94672.63;10568032;28;20413;-79
2021/07/20 22:32:36;;;;;;;11.65;7.65;;;;;;;19.83;100.00;94684.91;10566789;28;20027;-79
2021/07/20 22:37:36;;;;;;;9.77;7.03;;;;;;;19.75;100.00;94672.09;10568094;28;20031;-79
2021/07/20 22:42:37;;;;;;;12.10;7.73;;;;;;;19.80;100.00;94677.34;10568345;28;20032;-80
2021/07/20 22:47:37;;;;;;;10.40;7.10;;;;;;;19.69;100.00;94666.06;10567751;28;20167;-80
2021/07/20 22:52:38;;;;;;;16.00;7.75;;;;;;;19.77;100.00;94667.91;10567638;28;20027;-79
2021/07/20 22:57:39;;;;;;;10.07;6.88;;;;;;;19.51;100.00;94662.66;10567118;28;20028;-80
2021/07/20 23:02:40;;;;;;;12.38;7.43;;;;;;;19.56;100.00;94658.91;10545315;28;20036;-80
2021/07/20 23:07:41;;;;;;;10.88;6.25;;;;;;;19.58;100.00;94665.63;10546991;28;20406;-80
2021/07/20 23:12:42;;;;;;;15.18;7.20;;;;;;;19.61;100.00;94667.69;10566408;28;20092;-80
2021/07/20 23:17:43;;;;;;;11.10;6.88;;;;;;;19.59;100.00;94669.16;10567536;28;20027;-80